createdAt,value
2018-02-01T00:01:30.215Z,5.87
2018-02-01T00:04:00.132Z,10.87
2018-02-01T00:06:30.199Z,5.67
2018-02-01T00:09:00.082Z,6.73
2018-02-01T00:11:30.277Z,10.93
2018-02-01T00:14:00.164Z,4.47
2018-02-01T00:16:30.624Z,7.73
2018-02-01T00:19:00.474Z,9.70
2018-02-01T00:21:30.402Z,9.60
2018-02-01T00:24:00.230Z,8.40
2018-02-01T00:26:30.163Z,7.60
2018-02-01T00:29:00.079Z,7.23
2018-02-01T00:31:30.194Z,7.80
2018-02-01T00:34:01.131Z,7.33
2018-02-01T00:36:31.037Z,5.60
2018-02-01T00:39:00.909Z,6.87
2018-02-01T00:41:31.588Z,8.03
2018-02-01T00:44:01.464Z,9.43
2018-02-01T00:46:31.340Z,4.70
2018-02-01T00:49:01.556Z,11.57
2018-02-01T00:51:31.469Z,7.07
2018-02-01T00:54:01.322Z,5.87
2018-02-01T00:56:31.294Z,7.50
2018-02-01T00:59:01.220Z,13.43
2018-02-01T01:01:31.130Z,9.70
2018-02-01T01:04:01.759Z,6.43
2018-02-01T01:06:33.300Z,10.23
2018-02-01T01:09:03.329Z,5.57
2018-02-01T01:11:34.769Z,6.27
2018-02-01T01:14:04.657Z,4.40
2018-02-01T01:16:35.039Z,5.43
2018-02-01T01:19:04.931Z,15.83
2018-02-01T01:21:34.981Z,7.73
2018-02-01T01:24:04.977Z,7.50
2018-02-01T01:26:34.864Z,4.43
2018-02-01T01:29:04.719Z,9.50
2018-02-01T01:31:34.629Z,7.70
2018-02-01T01:34:04.542Z,12.83
2018-02-01T01:36:34.432Z,5.20
2018-02-01T01:39:04.703Z,6.43
2018-02-01T01:41:34.696Z,8.40
2018-02-01T01:44:04.648Z,8.00
2018-02-01T01:46:34.680Z,8.97
2018-02-01T01:49:04.623Z,6.80
2018-02-01T01:51:34.658Z,11.90
2018-02-01T01:54:04.655Z,6.80
2018-02-01T01:56:34.547Z,12.73
2018-02-01T01:59:04.480Z,7.40
2018-02-01T02:01:34.402Z,6.70
2018-02-01T02:04:04.370Z,4.20
2018-02-01T02:06:37.132Z,6.10
2018-02-01T02:09:07.067Z,5.27
2018-02-01T02:11:36.958Z,4.37
2018-02-01T02:14:07.022Z,5.50
2018-02-01T02:16:36.916Z,7.17
2018-02-01T02:19:06.889Z,6.57
2018-02-01T02:21:37.381Z,7.10
2018-02-01T02:24:07.336Z,7.40
2018-02-01T02:26:37.267Z,8.93
2018-02-01T02:29:07.342Z,14.90
2018-02-01T02:31:37.381Z,6.57
2018-02-01T02:34:07.229Z,5.87
2018-02-01T02:36:37.165Z,7.30
2018-02-01T02:39:07.878Z,8.80
2018-02-01T02:41:37.719Z,4.70
2018-02-01T02:44:07.571Z,9.40
2018-02-01T02:46:38.447Z,6.00
2018-02-01T02:49:08.301Z,10.20
2018-02-01T02:51:38.244Z,8.80
2018-02-01T02:54:08.090Z,8.33
2018-02-01T02:56:38.018Z,5.47
2018-02-01T02:59:08.732Z,8.23
2018-02-01T03:01:38.658Z,5.87
2018-02-01T03:04:08.520Z,4.00
2018-02-01T03:06:38.401Z,7.73
2018-02-01T03:09:08.493Z,11.17
2018-02-01T03:11:38.418Z,5.80
2018-02-01T03:14:08.273Z,6.03
2018-02-01T03:16:38.808Z,6.07
2018-02-01T03:19:08.679Z,8.37
2018-02-01T03:21:38.545Z,6.83
2018-02-01T03:24:08.894Z,7.60
2018-02-01T03:26:38.950Z,5.90
2018-02-01T03:29:09.244Z,4.43
2018-02-01T03:31:39.252Z,13.70
2018-02-01T03:34:09.112Z,7.20
2018-02-01T03:36:39.033Z,17.63
2018-02-01T03:39:08.971Z,4.27
2018-02-01T03:41:38.940Z,13.67
2018-02-01T03:44:08.904Z,14.20
2018-02-01T03:46:38.787Z,12.47
2018-02-01T03:49:08.693Z,7.60
2018-02-01T03:51:38.657Z,9.27
2018-02-01T03:54:08.503Z,8.50
2018-02-01T03:56:38.616Z,10.47
2018-02-01T03:59:08.568Z,9.47
2018-02-01T04:01:38.540Z,7.10
2018-02-01T04:04:08.525Z,11.20
2018-02-01T04:06:38.664Z,9.10
2018-02-01T04:09:08.627Z,8.03
2018-02-01T04:11:38.533Z,15.60
2018-02-01T04:14:08.417Z,10.03
2018-02-01T04:16:38.309Z,14.20
2018-02-01T04:19:08.319Z,20.27
2018-02-01T04:21:38.252Z,11.23
2018-02-01T04:24:08.173Z,10.23
2018-02-01T04:26:38.054Z,12.07
2018-02-01T04:29:07.935Z,15.80
2018-02-01T04:31:37.869Z,14.93
2018-02-01T04:34:07.739Z,15.63
2018-02-01T04:36:37.605Z,9.10
2018-02-01T04:39:07.477Z,14.67
2018-02-01T04:41:38.319Z,9.90
2018-02-01T04:44:08.334Z,13.67
2018-02-01T04:46:38.240Z,12.27
2018-02-01T04:49:08.139Z,7.80
2018-02-01T04:51:38.013Z,16.30
2018-02-01T04:54:07.948Z,17.83
2018-02-01T04:56:38.887Z,16.57
2018-02-01T04:59:08.736Z,18.23
2018-02-01T05:01:38.590Z,15.10
2018-02-01T05:04:08.469Z,13.67
2018-02-01T05:06:38.329Z,16.50
2018-02-01T05:09:08.468Z,15.53
2018-02-01T05:11:38.348Z,13.70
2018-02-01T05:14:08.553Z,10.23
2018-02-01T05:16:38.430Z,19.83
2018-02-01T05:19:08.433Z,13.87
2018-02-01T05:21:38.361Z,15.60
2018-02-01T05:24:09.411Z,16.27
2018-02-01T05:26:39.341Z,20.97
2018-02-01T05:29:09.236Z,17.10
2018-02-01T05:31:39.114Z,15.10
2018-02-01T05:34:09.149Z,22.93
2018-02-01T05:36:39.974Z,16.50
2018-02-01T05:39:09.949Z,17.73
2018-02-01T05:41:40.810Z,19.47
2018-02-01T05:44:10.734Z,12.33
2018-02-01T05:46:40.606Z,20.17
2018-02-01T05:49:10.523Z,20.93
2018-02-01T05:51:40.362Z,11.17
2018-02-01T05:54:10.368Z,19.17
2018-02-01T05:56:40.282Z,18.57
2018-02-01T05:59:10.185Z,17.93
2018-02-01T06:01:40.017Z,23.87
2018-02-01T06:04:09.913Z,17.10
2018-02-01T06:06:39.814Z,19.10
2018-02-01T06:09:09.682Z,15.80
2018-02-01T06:11:39.551Z,20.63
2018-02-01T06:14:09.488Z,29.83
2018-02-01T06:16:40.688Z,21.53
2018-02-01T06:19:11.326Z,21.13
2018-02-01T06:21:41.237Z,16.23
2018-02-01T06:24:12.048Z,23.20
2018-02-01T06:26:42.031Z,21.77
2018-02-01T06:29:12.289Z,14.73
2018-02-01T06:31:42.173Z,25.93
2018-02-01T06:34:12.239Z,21.57
2018-02-01T06:36:42.091Z,20.80
2018-02-01T06:39:11.952Z,20.90
2018-02-01T06:41:42.601Z,23.63
2018-02-01T06:44:12.527Z,20.70
2018-02-01T06:46:42.406Z,22.07
2018-02-01T06:49:12.289Z,22.57
2018-02-01T06:51:42.466Z,17.87
2018-02-01T06:54:12.332Z,25.50
2018-02-01T06:56:42.663Z,21.57
2018-02-01T06:59:12.593Z,23.03
2018-02-01T07:01:42.537Z,29.83
2018-02-01T07:04:12.386Z,25.53
2018-02-01T07:06:42.291Z,32.10
2018-02-01T07:09:12.149Z,23.73
2018-02-01T07:11:42.141Z,23.33
2018-02-01T07:14:12.022Z,29.13
2018-02-01T07:16:41.882Z,17.70
2018-02-01T07:19:11.727Z,24.33
2018-02-01T07:21:41.640Z,29.27
2018-02-01T07:24:11.895Z,26.50
2018-02-01T07:26:41.736Z,20.37
2018-02-01T07:29:11.618Z,18.97
2018-02-01T07:31:41.561Z,26.23
2018-02-01T07:34:11.727Z,17.50
2018-02-01T07:36:41.637Z,28.77
2018-02-01T07:39:11.609Z,24.60
2018-02-01T07:41:41.471Z,19.60
2018-02-01T07:44:11.449Z,21.00
2018-02-01T07:46:46.898Z,24.87
2018-02-01T07:49:16.818Z,21.60
2018-02-01T07:51:46.653Z,30.37
2018-02-01T07:54:16.540Z,24.60
2018-02-01T07:56:46.400Z,24.60
2018-02-01T07:59:16.281Z,24.67
2018-02-01T08:01:46.185Z,22.43
2018-02-01T08:04:16.112Z,22.70
2018-02-01T08:06:46.038Z,23.03
2018-02-01T08:09:15.953Z,23.57
2018-02-01T08:11:45.823Z,20.37
2018-02-01T08:14:16.509Z,19.60
2018-02-01T08:16:46.799Z,21.50
2018-02-01T08:19:16.743Z,27.07
2018-02-01T08:21:46.592Z,23.87
2018-02-01T08:24:17.628Z,24.03
2018-02-01T08:26:47.587Z,21.53
2018-02-01T08:29:17.431Z,21.13
2018-02-01T08:31:49.023Z,27.20
2018-02-01T08:34:18.966Z,29.10
2018-02-01T08:36:48.804Z,18.50
2018-02-01T08:39:18.624Z,28.70
2018-02-01T08:41:48.579Z,29.13
2018-02-01T08:44:18.423Z,17.57
2018-02-01T08:46:48.547Z,24.10
2018-02-01T08:49:18.452Z,25.63
2018-02-01T08:51:48.373Z,17.13
2018-02-01T08:54:18.235Z,36.13
2018-02-01T08:56:48.106Z,29.60
2018-02-01T08:59:17.968Z,29.10
2018-02-01T09:01:47.855Z,31.37
2018-02-01T09:04:17.741Z,21.30
2018-02-01T09:06:47.582Z,21.50
2018-02-01T09:09:17.509Z,32.00
2018-02-01T09:11:47.499Z,22.10
2018-02-01T09:14:17.424Z,21.83
2018-02-01T09:16:47.322Z,28.23
2018-02-01T09:19:17.161Z,16.77
2018-02-01T09:21:47.069Z,24.83
2018-02-01T09:24:17.063Z,18.83
2018-02-01T09:26:47.026Z,27.63
2018-02-01T09:29:16.935Z,20.20
2018-02-01T09:31:46.820Z,17.00
2018-02-01T09:34:16.676Z,23.37
2018-02-01T09:36:46.553Z,24.03
2018-02-01T09:39:16.603Z,24.73
2018-02-01T09:41:47.210Z,26.23
2018-02-01T09:44:17.229Z,26.77
2018-02-01T09:46:47.222Z,22.33
2018-02-01T09:49:17.088Z,17.97
2018-02-01T09:51:47.618Z,22.60
2018-02-01T09:54:17.493Z,20.00
2018-02-01T09:56:47.387Z,19.47
2018-02-01T09:59:17.271Z,24.77
2018-02-01T10:01:47.172Z,22.07
2018-02-01T10:04:17.198Z,16.93
2018-02-01T10:06:47.100Z,20.53
2018-02-01T10:09:17.010Z,20.87
2018-02-01T10:11:46.883Z,24.10
2018-02-01T10:14:17.101Z,15.60
2018-02-01T10:16:46.928Z,29.40
2018-02-01T10:19:17.284Z,19.90
2018-02-01T10:21:47.204Z,24.73
2018-02-01T10:24:17.058Z,18.73
2018-02-01T10:26:46.922Z,19.63
2018-02-01T10:29:16.806Z,18.57
2018-02-01T10:31:46.716Z,23.97
2018-02-01T10:34:16.568Z,21.30
2018-02-01T10:36:46.454Z,16.63
2018-02-01T10:39:17.072Z,16.07
2018-02-01T10:41:46.933Z,21.23
2018-02-01T10:44:16.785Z,26.43
2018-02-01T10:46:46.639Z,20.23
2018-02-01T10:49:17.266Z,18.20
2018-02-01T10:51:47.238Z,18.23
2018-02-01T10:54:17.165Z,19.93
2018-02-01T10:56:47.090Z,20.27
2018-02-01T10:59:17.420Z,18.43
2018-02-01T11:01:47.268Z,15.73
2018-02-01T11:04:18.104Z,21.87
2018-02-01T11:06:47.998Z,21.10
2018-02-01T11:09:19.055Z,9.87
2018-02-01T11:11:48.916Z,20.03
2018-02-01T11:14:19.619Z,21.57
2018-02-01T11:16:49.458Z,13.67
2018-02-01T11:19:20.171Z,17.80
2018-02-01T11:21:50.021Z,23.83
2018-02-01T11:24:20.531Z,24.40
2018-02-01T11:26:51.516Z,28.33
2018-02-01T11:29:21.454Z,16.07
2018-02-01T11:31:51.296Z,24.73
2018-02-01T11:34:21.397Z,22.93
2018-02-01T11:36:51.621Z,20.77
2018-02-01T11:39:21.483Z,23.83
2018-02-01T11:41:51.341Z,17.00
2018-02-01T11:44:21.300Z,27.27
2018-02-01T11:46:51.163Z,24.53
2018-02-01T11:49:21.076Z,26.00
2018-02-01T11:51:50.944Z,20.10
2018-02-01T11:54:20.863Z,17.40
2018-02-01T11:56:50.750Z,17.03
2018-02-01T11:59:20.638Z,18.03
2018-02-01T12:01:50.485Z,21.27
2018-02-01T12:04:20.318Z,16.70
2018-02-01T12:06:50.778Z,13.10
2018-02-01T12:09:20.605Z,23.43
2018-02-01T12:11:51.064Z,30.53
2018-02-01T12:14:20.934Z,23.83
2018-02-01T12:16:50.783Z,21.67
2018-02-01T12:19:20.657Z,15.93
2018-02-01T12:21:50.520Z,19.63
2018-02-01T12:24:20.485Z,15.93
2018-02-01T12:26:50.901Z,13.70
2018-02-01T12:29:26.302Z,20.50
2018-02-01T12:31:57.213Z,21.27
2018-02-01T12:34:27.175Z,19.87
2018-02-01T12:36:57.008Z,21.93
2018-02-01T12:39:26.863Z,22.90
2018-02-01T12:41:56.764Z,16.63
2018-02-01T12:44:26.646Z,16.50
2018-02-01T12:46:56.480Z,18.63
2018-02-01T12:49:26.425Z,18.80
2018-02-01T12:51:56.330Z,16.90
2018-02-01T12:54:26.453Z,12.07
2018-02-01T12:56:56.452Z,18.47
2018-02-01T12:59:26.310Z,15.30
2018-02-01T13:01:56.222Z,16.00
2018-02-01T13:04:26.078Z,13.63
2018-02-01T13:06:56.121Z,17.03
2018-02-01T13:09:27.365Z,20.03
2018-02-01T13:24:18.516Z,17.77
2018-02-01T13:26:49.384Z,18.70
2018-02-01T13:29:19.704Z,15.47
2018-02-01T13:32:00.475Z,15.93
2018-02-01T14:57:57.234Z,16.70
2018-02-01T15:00:27.912Z,11.53
2018-02-01T17:04:50.481Z,13.83
2018-02-01T17:21:59.536Z,13.43
2018-02-01T17:24:29.729Z,13.77
2018-02-01T17:27:00.643Z,13.20
2018-02-01T17:29:30.633Z,14.73
2018-02-01T17:32:00.541Z,16.67
2018-02-01T17:34:30.458Z,14.43
2018-02-01T17:37:00.416Z,15.87
2018-02-01T17:39:30.449Z,19.00
2018-02-01T17:42:01.136Z,19.33
2018-02-01T17:44:30.979Z,19.30
2018-02-01T17:47:00.920Z,18.50
2018-02-01T17:49:30.815Z,18.90
2018-02-01T17:52:00.684Z,15.70
2018-02-01T17:54:30.588Z,20.00
2018-02-01T17:57:00.470Z,14.43
2018-02-01T17:59:30.300Z,13.90
2018-02-01T18:02:00.469Z,14.90
2018-02-01T18:04:30.599Z,18.27
2018-02-01T18:07:00.577Z,14.73
2018-02-01T18:09:30.430Z,15.10
2018-02-01T18:12:00.551Z,18.50
2018-02-01T18:14:30.508Z,15.07
2018-02-01T18:17:00.434Z,17.00
2018-02-01T18:19:31.275Z,17.83
2018-02-01T18:22:01.942Z,18.93
2018-02-01T18:24:31.761Z,14.73
2018-02-01T18:27:01.709Z,16.27
2018-02-01T18:29:31.641Z,15.43
2018-02-01T18:32:01.523Z,22.63
2018-02-01T18:34:31.409Z,20.70
2018-02-01T18:37:02.048Z,15.90
2018-02-01T18:39:31.972Z,14.57
2018-02-01T18:42:01.834Z,17.67
2018-02-01T18:44:31.760Z,20.57
2018-02-01T18:47:02.426Z,14.13
2018-02-01T18:49:32.353Z,15.50
2018-02-01T18:52:02.222Z,19.77
2018-02-01T18:54:32.082Z,17.67
2018-02-01T18:57:01.908Z,17.83
2018-02-01T18:59:31.865Z,18.13
2018-02-01T19:02:01.749Z,21.67
2018-02-01T19:04:31.651Z,21.73
2018-02-01T19:07:02.455Z,20.67
2018-02-01T19:09:32.331Z,18.67
2018-02-01T19:12:02.184Z,19.60
2018-02-01T19:14:32.082Z,30.80
2018-02-01T19:17:02.226Z,18.67
2018-02-01T19:19:32.120Z,21.50
2018-02-01T19:22:02.039Z,23.57
2018-02-01T19:24:32.084Z,22.67
2018-02-01T19:27:02.065Z,20.40
2018-02-01T19:29:31.974Z,17.93
2018-02-01T19:32:01.857Z,22.03
2018-02-01T19:34:31.809Z,21.57
2018-02-01T19:37:01.872Z,17.97
2018-02-01T19:39:32.065Z,19.77
2018-02-01T19:42:01.972Z,18.73
2018-02-01T19:44:31.854Z,21.57
2018-02-01T19:47:01.825Z,20.77
2018-02-01T19:49:32.561Z,17.17
2018-02-01T19:52:02.403Z,16.97
2018-02-01T19:54:32.286Z,17.00
2018-02-01T19:57:02.254Z,18.20
2018-02-01T19:59:32.278Z,21.43
2018-02-01T20:02:02.272Z,18.13
2018-02-01T20:04:32.212Z,22.67
2018-02-01T20:07:02.594Z,15.60
2018-02-01T20:09:32.536Z,15.20
2018-02-01T20:12:02.530Z,20.43
2018-02-01T20:14:33.276Z,16.50
2018-02-01T20:17:04.094Z,16.40
2018-02-01T20:19:34.013Z,21.87
2018-02-01T20:22:03.976Z,17.93
2018-02-01T20:24:34.342Z,19.20
2018-02-01T20:27:04.183Z,22.30
2018-02-01T20:29:34.062Z,23.33
2018-02-01T20:32:04.981Z,17.97
2018-02-01T20:34:34.925Z,18.93
2018-02-01T20:37:06.462Z,18.50
2018-02-01T20:39:36.416Z,17.07
2018-02-01T20:42:06.296Z,23.00
2018-02-01T20:44:36.931Z,22.83
2018-02-01T20:47:06.858Z,23.13
2018-02-01T20:49:36.768Z,20.53
2018-02-01T20:52:06.653Z,17.00
2018-02-01T20:54:36.523Z,23.03
2018-02-01T20:57:06.511Z,25.07
2018-02-01T20:59:36.404Z,22.00
2018-02-01T21:02:06.309Z,21.70
2018-02-01T21:04:37.768Z,19.67
2018-02-01T21:07:07.727Z,17.30
2018-02-01T21:09:37.686Z,21.43
2018-02-01T21:12:12.237Z,20.13
2018-02-01T21:14:42.193Z,20.03
2018-02-01T21:17:13.029Z,19.53
2018-02-01T21:19:42.932Z,26.60
2018-02-01T21:22:12.937Z,21.83
2018-02-01T21:24:42.824Z,19.43
2018-02-01T21:27:12.717Z,18.20
2018-02-01T21:29:42.570Z,23.60
2018-02-01T21:32:12.445Z,21.70
2018-02-01T21:34:42.268Z,20.17
2018-02-01T21:37:12.137Z,20.70
2018-02-01T21:39:41.996Z,22.97
2018-02-01T21:42:11.857Z,17.73
2018-02-01T21:44:41.749Z,30.33
2018-02-01T21:47:11.812Z,17.10
2018-02-01T21:49:41.678Z,28.80
2018-02-01T21:52:11.510Z,21.53
2018-02-01T21:54:41.502Z,18.90
2018-02-01T21:57:11.404Z,21.87
2018-02-01T21:59:41.289Z,21.43
2018-02-01T22:02:11.171Z,21.20
2018-02-01T22:04:41.083Z,17.03
2018-02-01T22:07:11.803Z,25.10
2018-02-01T22:09:41.728Z,27.77
2018-02-01T22:12:11.689Z,25.17
2018-02-01T22:14:41.534Z,29.83
2018-02-01T22:17:12.657Z,19.70
2018-02-01T22:22:49.917Z,20.20
2018-02-01T22:25:19.906Z,20.57
2018-02-01T22:27:53.323Z,25.77
2018-02-01T22:30:26.591Z,27.83
2018-02-01T22:32:57.078Z,20.43
2018-02-01T22:35:26.941Z,21.87
2018-02-01T22:37:57.863Z,19.30
2018-02-01T22:40:28.908Z,32.10
2018-02-01T22:42:58.843Z,24.63
2018-02-01T22:45:28.823Z,26.03
2018-02-01T22:47:58.724Z,22.23
2018-02-01T22:50:28.592Z,22.20
2018-02-01T22:52:58.482Z,21.90
2018-02-01T22:55:28.359Z,21.27
2018-02-01T22:57:58.245Z,25.87
2018-02-01T23:00:28.142Z,15.73
2018-02-01T23:02:58.096Z,30.43
2018-02-01T23:05:28.041Z,23.53
2018-02-01T23:07:57.928Z,20.13
2018-02-01T23:10:27.812Z,22.60
2018-02-01T23:12:57.760Z,22.87
2018-02-01T23:15:27.775Z,20.20
2018-02-01T23:17:57.724Z,22.53
2018-02-01T23:20:27.598Z,23.10
2018-02-01T23:22:57.550Z,26.60
2018-02-01T23:25:27.415Z,21.43
2018-02-01T23:27:57.632Z,18.73
2018-02-01T23:30:27.530Z,30.57
2018-02-01T23:32:57.633Z,20.53
2018-02-01T23:35:28.491Z,30.23
2018-02-01T23:37:58.356Z,24.80
2018-02-01T23:40:28.242Z,21.37
2018-02-01T23:42:58.179Z,33.97
2018-02-01T23:45:28.218Z,19.67
2018-02-01T23:47:59.064Z,17.83
2018-02-01T23:50:29.146Z,22.23
2018-02-01T23:52:59.147Z,26.90
2018-02-01T23:55:29.549Z,26.03
2018-02-01T23:57:59.525Z,23.67
